sensor_id;sensor_type;location;lat;lon;timestamp;temperature;humidity
22742;DHT22;11538;48.884;8.696;2023-05-07T00:02:20;14.40;99.90
22742;DHT22;11538;48.884;8.696;2023-05-07T00:04:48;14.40;99.90
22742;DHT22;11538;48.884;8.696;2023-05-07T00:07:15;14.40;99.90
22742;DHT22;11538;48.884;8.696;2023-05-07T00:09:43;14.40;99.90
22742;DHT22;11538;48.884;8.696;2023-05-07T00:12:10;14.40;99.90
22742;DHT22;11538;48.884;8.696;2023-05-07T00:14:37;14.40;99.90
22742;DHT22;11538;48.884;8.696;2023-05-07T00:17:04;14.40;99.90
22742;DHT22;11538;48.884;8.696;2023-05-07T00:19:30;14.30;99.90
22742;DHT22;11538;48.884;8.696;2023-05-07T00:22:00;14.30;99.90
22742;DHT22;11538;48.884;8.696;2023-05-07T00:24:27;14.30;99.90
22742;DHT22;11538;48.884;8.696;2023-05-07T00:26:57;14.20;99.90
22742;DHT22;11538;48.884;8.696;2023-05-07T00:29:24;14.30;99.90
22742;DHT22;11538;48.884;8.696;2023-05-07T00:31:51;14.20;99.90
22742;DHT22;11538;48.884;8.696;2023-05-07T00:34:20;14.30;99.90
22742;DHT22;11538;48.884;8.696;2023-05-07T00:36:47;14.30;99.90
22742;DHT22;11538;48.884;8.696;2023-05-07T00:39:14;14.30;99.90
22742;DHT22;11538;48.884;8.696;2023-05-07T00:41:41;14.30;99.90
22742;DHT22;11538;48.884;8.696;2023-05-07T00:44:08;14.30;99.90
22742;DHT22;11538;48.884;8.696;2023-05-07T00:46:35;14.20;99.90
22742;DHT22;11538;48.884;8.696;2023-05-07T00:49:05;14.20;99.90
22742;DHT22;11538;48.884;8.696;2023-05-07T00:51:33;14.10;99.90
22742;DHT22;11538;48.884;8.696;2023-05-07T00:54:02;14.00;99.90
22742;DHT22;11538;48.884;8.696;2023-05-07T00:56:29;13.90;99.90
22742;DHT22;11538;48.884;8.696;2023-05-07T00:58:58;13.90;99.90
22742;DHT22;11538;48.884;8.696;2023-05-07T01:01:25;13.80;99.90
22742;DHT22;11538;48.884;8.696;2023-05-07T01:03:53;13.80;99.90
22742;DHT22;11538;48.884;8.696;2023-05-07T01:06:21;13.80;99.90
22742;DHT22;11538;48.884;8.696;2023-05-07T01:08:52;13.70;99.90
22742;DHT22;11538;48.884;8.696;2023-05-07T01:11:19;13.70;99.90
22742;DHT22;11538;48.884;8.696;2023-05-07T01:13:49;13.60;99.90
22742;DHT22;11538;48.884;8.696;2023-05-07T01:16:20;13.60;99.90
22742;DHT22;11538;48.884;8.696;2023-05-07T01:18:50;13.60;99.90
22742;DHT22;11538;48.884;8.696;2023-05-07T01:21:17;13.60;99.90
22742;DHT22;11538;48.884;8.696;2023-05-07T01:23:45;13.60;99.90
22742;DHT22;11538;48.884;8.696;2023-05-07T01:26:13;13.70;99.90
22742;DHT22;11538;48.884;8.696;2023-05-07T01:28:41;13.70;99.90
22742;DHT22;11538;48.884;8.696;2023-05-07T01:31:24;13.60;99.90
22742;DHT22;11538;48.884;8.696;2023-05-07T01:33:52;13.60;99.90
22742;DHT22;11538;48.884;8.696;2023-05-07T01:36:21;13.50;99.90
22742;DHT22;11538;48.884;8.696;2023-05-07T01:38:52;13.60;99.90
22742;DHT22;11538;48.884;8.696;2023-05-07T01:41:19;13.60;99.90
22742;DHT22;11538;48.884;8.696;2023-05-07T01:43:48;13.60;99.90
22742;DHT22;11538;48.884;8.696;2023-05-07T01:46:17;13.60;99.90
22742;DHT22;11538;48.884;8.696;2023-05-07T01:48:45;13.60;99.90
22742;DHT22;11538;48.884;8.696;2023-05-07T01:51:13;13.50;99.90
22742;DHT22;11538;48.884;8.696;2023-05-07T01:53:40;13.50;99.90
22742;DHT22;11538;48.884;8.696;2023-05-07T01:56:10;13.50;99.90
22742;DHT22;11538;48.884;8.696;2023-05-07T01:58:37;13.50;99.90
22742;DHT22;11538;48.884;8.696;2023-05-07T02:01:04;13.50;99.90
22742;DHT22;11538;48.884;8.696;2023-05-07T02:03:31;13.50;99.90
22742;DHT22;11538;48.884;8.696;2023-05-07T02:05:58;13.50;99.90
22742;DHT22;11538;48.884;8.696;2023-05-07T02:08:25;13.50;99.90
22742;DHT22;11538;48.884;8.696;2023-05-07T02:10:51;13.50;99.90
22742;DHT22;11538;48.884;8.696;2023-05-07T02:13:20;13.50;99.90
22742;DHT22;11538;48.884;8.696;2023-05-07T02:15:49;13.50;99.90
22742;DHT22;11538;48.884;8.696;2023-05-07T02:18:17;13.60;99.90
22742;DHT22;11538;48.884;8.696;2023-05-07T02:20:44;13.60;99.90
22742;DHT22;11538;48.884;8.696;2023-05-07T02:23:11;13.60;99.90
22742;DHT22;11538;48.884;8.696;2023-05-07T02:25:38;13.60;99.90
22742;DHT22;11538;48.884;8.696;2023-05-07T02:28:05;13.60;99.90
22742;DHT22;11538;48.884;8.696;2023-05-07T02:30:36;13.60;99.90
22742;DHT22;11538;48.884;8.696;2023-05-07T02:33:04;13.60;99.90
22742;DHT22;11538;48.884;8.696;2023-05-07T02:35:31;13.50;99.90
22742;DHT22;11538;48.884;8.696;2023-05-07T02:37:58;13.50;99.90
22742;DHT22;11538;48.884;8.696;2023-05-07T02:40:25;13.40;99.90
22742;DHT22;11538;48.884;8.696;2023-05-07T02:42:52;13.40;99.90
22742;DHT22;11538;48.884;8.696;2023-05-07T02:45:18;13.40;99.90
22742;DHT22;11538;48.884;8.696;2023-05-07T02:47:45;13.30;99.90
22742;DHT22;11538;48.884;8.696;2023-05-07T02:50:13;13.30;99.90
22742;DHT22;11538;48.884;8.696;2023-05-07T02:52:40;13.30;99.90
22742;DHT22;11538;48.884;8.696;2023-05-07T02:55:09;13.30;99.90
22742;DHT22;11538;48.884;8.696;2023-05-07T02:57:36;13.40;99.90
22742;DHT22;11538;48.884;8.696;2023-05-07T03:00:17;13.40;99.90
22742;DHT22;11538;48.884;8.696;2023-05-07T03:02:46;13.40;99.90
22742;DHT22;11538;48.884;8.696;2023-05-07T03:05:13;13.30;99.90
22742;DHT22;11538;48.884;8.696;2023-05-07T03:07:41;13.30;99.90
22742;DHT22;11538;48.884;8.696;2023-05-07T03:10:11;13.30;99.90
22742;DHT22;11538;48.884;8.696;2023-05-07T03:12:39;13.30;99.90
22742;DHT22;11538;48.884;8.696;2023-05-07T03:15:06;13.30;99.90
22742;DHT22;11538;48.884;8.696;2023-05-07T03:17:33;13.20;99.90
22742;DHT22;11538;48.884;8.696;2023-05-07T03:20:00;13.20;99.90
22742;DHT22;11538;48.884;8.696;2023-05-07T03:22:27;13.10;99.90
22742;DHT22;11538;48.884;8.696;2023-05-07T03:24:56;13.10;99.90
22742;DHT22;11538;48.884;8.696;2023-05-07T03:27:23;13.10;99.90
22742;DHT22;11538;48.884;8.696;2023-05-07T03:29:50;13.10;99.90
22742;DHT22;11538;48.884;8.696;2023-05-07T03:32:17;13.10;99.90
22742;DHT22;11538;48.884;8.696;2023-05-07T03:34:44;13.10;99.90
22742;DHT22;11538;48.884;8.696;2023-05-07T03:37:10;13.10;99.90
22742;DHT22;11538;48.884;8.696;2023-05-07T03:39:37;13.10;99.90
22742;DHT22;11538;48.884;8.696;2023-05-07T03:42:04;13.10;99.90
22742;DHT22;11538;48.884;8.696;2023-05-07T03:44:31;13.10;99.90
22742;DHT22;11538;48.884;8.696;2023-05-07T03:46:58;13.10;99.90
22742;DHT22;11538;48.884;8.696;2023-05-07T03:49:28;13.10;99.90
22742;DHT22;11538;48.884;8.696;2023-05-07T03:51:55;13.20;99.90
22742;DHT22;11538;48.884;8.696;2023-05-07T03:54:22;13.10;99.90
22742;DHT22;11538;48.884;8.696;2023-05-07T03:56:52;13.20;99.90
22742;DHT22;11538;48.884;8.696;2023-05-07T03:59:19;13.10;99.90
22742;DHT22;11538;48.884;8.696;2023-05-07T04:01:46;13.10;99.90
22742;DHT22;11538;48.884;8.696;2023-05-07T04:04:13;13.10;99.90
22742;DHT22;11538;48.884;8.696;2023-05-07T04:06:40;13.10;99.90
22742;DHT22;11538;48.884;8.696;2023-05-07T04:09:08;13.10;99.90
22742;DHT22;11538;48.884;8.696;2023-05-07T04:11:35;13.20;99.90
22742;DHT22;11538;48.884;8.696;2023-05-07T04:14:02;13.10;99.90
22742;DHT22;11538;48.884;8.696;2023-05-07T04:16:29;13.10;99.90
22742;DHT22;11538;48.884;8.696;2023-05-07T04:18:56;13.10;99.90
22742;DHT22;11538;48.884;8.696;2023-05-07T04:21:23;13.10;99.90
22742;DHT22;11538;48.884;8.696;2023-05-07T04:23:50;13.10;99.90
22742;DHT22;11538;48.884;8.696;2023-05-07T04:26:17;13.20;99.90
22742;DHT22;11538;48.884;8.696;2023-05-07T04:28:44;13.20;99.90
22742;DHT22;11538;48.884;8.696;2023-05-07T04:31:11;13.20;99.90
22742;DHT22;11538;48.884;8.696;2023-05-07T04:33:38;13.20;99.90
22742;DHT22;11538;48.884;8.696;2023-05-07T04:36:05;13.20;99.90
22742;DHT22;11538;48.884;8.696;2023-05-07T04:38:32;13.20;99.90
22742;DHT22;11538;48.884;8.696;2023-05-07T04:41:06;13.20;99.90
22742;DHT22;11538;48.884;8.696;2023-05-07T04:43:33;13.20;99.90
22742;DHT22;11538;48.884;8.696;2023-05-07T04:46:02;13.20;99.90
22742;DHT22;11538;48.884;8.696;2023-05-07T04:48:29;13.10;99.90
22742;DHT22;11538;48.884;8.696;2023-05-07T04:50:56;13.10;99.90
22742;DHT22;11538;48.884;8.696;2023-05-07T04:53:26;13.10;99.90
22742;DHT22;11538;48.884;8.696;2023-05-07T04:55:56;13.10;99.90
22742;DHT22;11538;48.884;8.696;2023-05-07T04:58:24;13.10;99.90
22742;DHT22;11538;48.884;8.696;2023-05-07T05:00:51;13.10;99.90
22742;DHT22;11538;48.884;8.696;2023-05-07T05:03:18;13.10;99.90
22742;DHT22;11538;48.884;8.696;2023-05-07T05:05:45;13.10;99.90
22742;DHT22;11538;48.884;8.696;2023-05-07T05:08:12;13.10;99.90
22742;DHT22;11538;48.884;8.696;2023-05-07T05:10:39;13.20;99.90
22742;DHT22;11538;48.884;8.696;2023-05-07T05:13:07;13.20;99.90
22742;DHT22;11538;48.884;8.696;2023-05-07T05:15:35;13.20;99.90
22742;DHT22;11538;48.884;8.696;2023-05-07T05:18:02;13.30;99.90
22742;DHT22;11538;48.884;8.696;2023-05-07T05:20:29;13.30;99.90
22742;DHT22;11538;48.884;8.696;2023-05-07T05:22:56;13.40;99.90
22742;DHT22;11538;48.884;8.696;2023-05-07T05:25:23;13.50;99.90
22742;DHT22;11538;48.884;8.696;2023-05-07T05:27:49;13.60;99.90
22742;DHT22;11538;48.884;8.696;2023-05-07T05:30:17;13.70;99.90
22742;DHT22;11538;48.884;8.696;2023-05-07T05:32:43;13.80;99.90
22742;DHT22;11538;48.884;8.696;2023-05-07T05:35:10;13.90;99.90
22742;DHT22;11538;48.884;8.696;2023-05-07T05:37:37;13.90;99.90
22742;DHT22;11538;48.884;8.696;2023-05-07T05:40:07;14.00;99.90
22742;DHT22;11538;48.884;8.696;2023-05-07T05:42:35;14.10;99.90
22742;DHT22;11538;48.884;8.696;2023-05-07T05:45:01;14.10;99.90
22742;DHT22;11538;48.884;8.696;2023-05-07T05:47:29;14.10;99.90
22742;DHT22;11538;48.884;8.696;2023-05-07T05:49:56;14.20;99.90
22742;DHT22;11538;48.884;8.696;2023-05-07T05:52:23;14.30;99.90
22742;DHT22;11538;48.884;8.696;2023-05-07T05:54:50;14.30;99.90
22742;DHT22;11538;48.884;8.696;2023-05-07T05:57:20;14.40;99.90
22742;DHT22;11538;48.884;8.696;2023-05-07T05:59:47;14.40;99.90
22742;DHT22;11538;48.884;8.696;2023-05-07T06:02:14;14.50;99.90
22742;DHT22;11538;48.884;8.696;2023-05-07T06:04:41;14.60;99.90
22742;DHT22;11538;48.884;8.696;2023-05-07T06:07:09;14.60;99.90
22742;DHT22;11538;48.884;8.696;2023-05-07T06:09:37;14.60;99.90
22742;DHT22;11538;48.884;8.696;2023-05-07T06:12:04;14.60;99.90
22742;DHT22;11538;48.884;8.696;2023-05-07T06:14:31;14.70;99.90
22742;DHT22;11538;48.884;8.696;2023-05-07T06:16:58;14.80;99.90
22742;DHT22;11538;48.884;8.696;2023-05-07T06:19:25;14.80;99.90
22742;DHT22;11538;48.884;8.696;2023-05-07T06:21:53;14.90;99.90
22742;DHT22;11538;48.884;8.696;2023-05-07T06:24:20;15.00;99.90
22742;DHT22;11538;48.884;8.696;2023-05-07T06:26:47;15.10;99.90
22742;DHT22;11538;48.884;8.696;2023-05-07T06:29:14;15.20;99.90
22742;DHT22;11538;48.884;8.696;2023-05-07T06:31:41;15.30;99.90
22742;DHT22;11538;48.884;8.696;2023-05-07T06:34:11;15.40;99.90
22742;DHT22;11538;48.884;8.696;2023-05-07T06:36:41;15.50;99.90
22742;DHT22;11538;48.884;8.696;2023-05-07T06:39:08;15.60;99.90
22742;DHT22;11538;48.884;8.696;2023-05-07T06:41:35;15.70;99.90
22742;DHT22;11538;48.884;8.696;2023-05-07T06:44:02;15.80;99.90
22742;DHT22;11538;48.884;8.696;2023-05-07T06:46:29;15.90;99.90
22742;DHT22;11538;48.884;8.696;2023-05-07T06:48:57;16.00;99.90
22742;DHT22;11538;48.884;8.696;2023-05-07T06:51:24;16.20;99.90
22742;DHT22;11538;48.884;8.696;2023-05-07T06:53:50;16.30;99.90
22742;DHT22;11538;48.884;8.696;2023-05-07T06:56:17;16.50;99.90
22742;DHT22;11538;48.884;8.696;2023-05-07T06:58:45;16.70;99.90
22742;DHT22;11538;48.884;8.696;2023-05-07T07:01:12;16.80;99.90
22742;DHT22;11538;48.884;8.696;2023-05-07T07:03:39;17.00;99.90
22742;DHT22;11538;48.884;8.696;2023-05-07T07:06:07;17.20;99.90
22742;DHT22;11538;48.884;8.696;2023-05-07T07:08:34;17.40;99.90
22742;DHT22;11538;48.884;8.696;2023-05-07T07:11:01;17.60;99.90
22742;DHT22;11538;48.884;8.696;2023-05-07T07:13:28;17.80;99.90
22742;DHT22;11538;48.884;8.696;2023-05-07T07:15:55;17.90;99.90
22742;DHT22;11538;48.884;8.696;2023-05-07T07:18:22;18.10;99.90
22742;DHT22;11538;48.884;8.696;2023-05-07T07:20:49;18.20;99.90
22742;DHT22;11538;48.884;8.696;2023-05-07T07:23:16;18.30;99.90
22742;DHT22;11538;48.884;8.696;2023-05-07T07:25:43;18.40;99.90
22742;DHT22;11538;48.884;8.696;2023-05-07T07:28:09;18.50;99.90
22742;DHT22;11538;48.884;8.696;2023-05-07T07:30:37;18.50;99.90
22742;DHT22;11538;48.884;8.696;2023-05-07T07:33:05;18.60;99.90
22742;DHT22;11538;48.884;8.696;2023-05-07T07:35:32;18.70;99.90
22742;DHT22;11538;48.884;8.696;2023-05-07T07:37:59;18.70;99.90
22742;DHT22;11538;48.884;8.696;2023-05-07T07:40:27;18.80;99.90
22742;DHT22;11538;48.884;8.696;2023-05-07T07:42:54;18.90;99.90
22742;DHT22;11538;48.884;8.696;2023-05-07T07:45:21;18.90;99.90
22742;DHT22;11538;48.884;8.696;2023-05-07T07:47:48;19.00;99.90
22742;DHT22;11538;48.884;8.696;2023-05-07T07:50:15;19.00;99.90
22742;DHT22;11538;48.884;8.696;2023-05-07T07:53:01;19.10;99.90
22742;DHT22;11538;48.884;8.696;2023-05-07T07:55:28;19.20;99.90
22742;DHT22;11538;48.884;8.696;2023-05-07T07:57:57;19.30;99.90
22742;DHT22;11538;48.884;8.696;2023-05-07T08:00:24;19.30;99.90
22742;DHT22;11538;48.884;8.696;2023-05-07T08:02:51;19.40;99.90
22742;DHT22;11538;48.884;8.696;2023-05-07T08:05:18;19.50;99.90
22742;DHT22;11538;48.884;8.696;2023-05-07T08:07:45;19.60;99.90
22742;DHT22;11538;48.884;8.696;2023-05-07T08:10:13;19.70;99.90
22742;DHT22;11538;48.884;8.696;2023-05-07T08:12:51;19.80;99.90
22742;DHT22;11538;48.884;8.696;2023-05-07T08:15:18;20.00;99.90
22742;DHT22;11538;48.884;8.696;2023-05-07T08:17:45;20.20;99.90
22742;DHT22;11538;48.884;8.696;2023-05-07T08:20:13;20.40;99.90
22742;DHT22;11538;48.884;8.696;2023-05-07T08:22:40;20.60;99.90
22742;DHT22;11538;48.884;8.696;2023-05-07T08:25:09;20.70;99.90
22742;DHT22;11538;48.884;8.696;2023-05-07T08:27:36;20.90;99.90
22742;DHT22;11538;48.884;8.696;2023-05-07T08:30:03;20.90;99.90
22742;DHT22;11538;48.884;8.696;2023-05-07T08:32:31;21.00;99.90
22742;DHT22;11538;48.884;8.696;2023-05-07T08:34:58;21.00;99.90
22742;DHT22;11538;48.884;8.696;2023-05-07T08:37:25;21.10;99.90
22742;DHT22;11538;48.884;8.696;2023-05-07T08:39:52;21.20;99.90
22742;DHT22;11538;48.884;8.696;2023-05-07T08:42:18;21.40;99.90
22742;DHT22;11538;48.884;8.696;2023-05-07T08:44:51;21.60;99.90
22742;DHT22;11538;48.884;8.696;2023-05-07T08:47:22;21.80;99.90
22742;DHT22;11538;48.884;8.696;2023-05-07T08:49:55;22.00;99.90
22742;DHT22;11538;48.884;8.696;2023-05-07T08:52:22;22.10;99.90
22742;DHT22;11538;48.884;8.696;2023-05-07T08:54:50;22.20;99.90
22742;DHT22;11538;48.884;8.696;2023-05-07T08:57:17;22.30;99.90
22742;DHT22;11538;48.884;8.696;2023-05-07T08:59:46;22.40;99.90
22742;DHT22;11538;48.884;8.696;2023-05-07T09:02:13;22.70;99.90
22742;DHT22;11538;48.884;8.696;2023-05-07T09:04:40;22.80;99.90
22742;DHT22;11538;48.884;8.696;2023-05-07T09:07:06;23.00;99.90
22742;DHT22;11538;48.884;8.696;2023-05-07T09:09:33;23.20;99.90
22742;DHT22;11538;48.884;8.696;2023-05-07T09:12:00;23.40;99.90
22742;DHT22;11538;48.884;8.696;2023-05-07T09:14:28;23.60;99.90
22742;DHT22;11538;48.884;8.696;2023-05-07T09:16:56;23.80;99.90
22742;DHT22;11538;48.884;8.696;2023-05-07T09:19:24;23.90;99.90
22742;DHT22;11538;48.884;8.696;2023-05-07T09:21:59;24.10;99.90
22742;DHT22;11538;48.884;8.696;2023-05-07T09:24:27;24.30;99.90
22742;DHT22;11538;48.884;8.696;2023-05-07T09:27:02;24.50;99.90
22742;DHT22;11538;48.884;8.696;2023-05-07T09:29:29;24.70;99.90
22742;DHT22;11538;48.884;8.696;2023-05-07T09:31:59;24.80;99.90
22742;DHT22;11538;48.884;8.696;2023-05-07T09:34:26;25.00;99.90
22742;DHT22;11538;48.884;8.696;2023-05-07T09:37:04;25.10;99.90
22742;DHT22;11538;48.884;8.696;2023-05-07T09:39:46;25.20;99.90
22742;DHT22;11538;48.884;8.696;2023-05-07T09:42:44;25.20;99.90
22742;DHT22;11538;48.884;8.696;2023-05-07T09:45:27;25.10;99.90
22742;DHT22;11538;48.884;8.696;2023-05-07T09:48:07;25.10;99.90
22742;DHT22;11538;48.884;8.696;2023-05-07T09:50:50;24.90;99.90
22742;DHT22;11538;48.884;8.696;2023-05-07T09:53:23;24.80;99.90
22742;DHT22;11538;48.884;8.696;2023-05-07T09:55:51;24.60;99.90
22742;DHT22;11538;48.884;8.696;2023-05-07T09:58:19;24.50;99.90
22742;DHT22;11538;48.884;8.696;2023-05-07T10:00:47;24.30;99.90
22742;DHT22;11538;48.884;8.696;2023-05-07T10:03:17;24.20;99.90
22742;DHT22;11538;48.884;8.696;2023-05-07T10:05:46;24.00;99.90
22742;DHT22;11538;48.884;8.696;2023-05-07T10:08:14;24.00;99.90
22742;DHT22;11538;48.884;8.696;2023-05-07T10:10:44;24.00;99.90
22742;DHT22;11538;48.884;8.696;2023-05-07T10:13:11;24.10;99.90
22742;DHT22;11538;48.884;8.696;2023-05-07T10:15:39;24.40;99.90
22742;DHT22;11538;48.884;8.696;2023-05-07T10:18:08;24.60;99.90
22742;DHT22;11538;48.884;8.696;2023-05-07T10:20:37;24.80;99.90
22742;DHT22;11538;48.884;8.696;2023-05-07T10:23:07;24.80;99.90
22742;DHT22;11538;48.884;8.696;2023-05-07T10:25:39;24.80;99.90
22742;DHT22;11538;48.884;8.696;2023-05-07T10:28:08;24.80;99.90
22742;DHT22;11538;48.884;8.696;2023-05-07T10:33:47;24.90;99.90
22742;DHT22;11538;48.884;8.696;2023-05-07T10:36:17;25.00;99.90
22742;DHT22;11538;48.884;8.696;2023-05-07T10:38:45;25.20;99.90
22742;DHT22;11538;48.884;8.696;2023-05-07T10:41:13;25.40;99.90
22742;DHT22;11538;48.884;8.696;2023-05-07T10:43:45;25.60;99.90
22742;DHT22;11538;48.884;8.696;2023-05-07T10:46:18;25.80;99.90
22742;DHT22;11538;48.884;8.696;2023-05-07T10:49:12;26.10;99.90
22742;DHT22;11538;48.884;8.696;2023-05-07T10:51:39;26.40;99.90
22742;DHT22;11538;48.884;8.696;2023-05-07T10:54:26;26.60;99.90
22742;DHT22;11538;48.884;8.696;2023-05-07T10:56:53;26.60;99.90
22742;DHT22;11538;48.884;8.696;2023-05-07T11:04:26;26.50;99.90
22742;DHT22;11538;48.884;8.696;2023-05-07T11:15:10;25.70;99.90
22742;DHT22;11538;48.884;8.696;2023-05-07T11:17:56;25.50;99.90
22742;DHT22;11538;48.884;8.696;2023-05-07T11:20:47;25.30;99.90
22742;DHT22;11538;48.884;8.696;2023-05-07T11:28:41;24.80;99.90
22742;DHT22;11538;48.884;8.696;2023-05-07T11:31:10;24.70;99.90
22742;DHT22;11538;48.884;8.696;2023-05-07T11:33:38;24.70;99.90
22742;DHT22;11538;48.884;8.696;2023-05-07T11:36:05;24.60;99.90
22742;DHT22;11538;48.884;8.696;2023-05-07T11:38:35;24.60;99.90
22742;DHT22;11538;48.884;8.696;2023-05-07T11:41:05;24.60;99.90
22742;DHT22;11538;48.884;8.696;2023-05-07T11:43:32;24.60;99.90
22742;DHT22;11538;48.884;8.696;2023-05-07T11:46:09;24.60;99.90
22742;DHT22;11538;48.884;8.696;2023-05-07T11:48:38;24.60;99.90
22742;DHT22;11538;48.884;8.696;2023-05-07T11:51:06;24.70;99.90
22742;DHT22;11538;48.884;8.696;2023-05-07T11:53:41;24.80;99.90
22742;DHT22;11538;48.884;8.696;2023-05-07T11:56:14;24.90;99.90
22742;DHT22;11538;48.884;8.696;2023-05-07T11:58:44;24.90;99.90
22742;DHT22;11538;48.884;8.696;2023-05-07T12:01:13;24.90;99.90
22742;DHT22;11538;48.884;8.696;2023-05-07T12:03:43;24.80;99.90
22742;DHT22;11538;48.884;8.696;2023-05-07T12:06:15;24.80;99.90
22742;DHT22;11538;48.884;8.696;2023-05-07T12:08:46;24.70;99.90
22742;DHT22;11538;48.884;8.696;2023-05-07T12:11:16;24.60;99.90
22742;DHT22;11538;48.884;8.696;2023-05-07T12:13:53;24.50;99.90
22742;DHT22;11538;48.884;8.696;2023-05-07T12:16:25;24.40;99.90
22742;DHT22;11538;48.884;8.696;2023-05-07T12:18:53;24.30;99.90
22742;DHT22;11538;48.884;8.696;2023-05-07T12:21:22;24.10;99.90
22742;DHT22;11538;48.884;8.696;2023-05-07T12:23:49;24.00;99.90
22742;DHT22;11538;48.884;8.696;2023-05-07T12:26:19;23.90;99.90
22742;DHT22;11538;48.884;8.696;2023-05-07T12:28:47;23.70;99.90
22742;DHT22;11538;48.884;8.696;2023-05-07T12:31:14;23.60;99.90
22742;DHT22;11538;48.884;8.696;2023-05-07T12:33:42;23.40;99.90
22742;DHT22;11538;48.884;8.696;2023-05-07T12:36:12;23.40;99.90
22742;DHT22;11538;48.884;8.696;2023-05-07T12:38:40;23.20;99.90
22742;DHT22;11538;48.884;8.696;2023-05-07T12:41:09;23.10;99.90
22742;DHT22;11538;48.884;8.696;2023-05-07T12:43:39;22.80;99.90
22742;DHT22;11538;48.884;8.696;2023-05-07T12:46:09;22.40;99.90
22742;DHT22;11538;48.884;8.696;2023-05-07T12:48:37;22.10;99.90
22742;DHT22;11538;48.884;8.696;2023-05-07T12:51:05;21.70;99.90
22742;DHT22;11538;48.884;8.696;2023-05-07T12:53:33;21.30;99.90
22742;DHT22;11538;48.884;8.696;2023-05-07T12:56:08;21.00;99.90
22742;DHT22;11538;48.884;8.696;2023-05-07T12:58:36;20.60;99.90
22742;DHT22;11538;48.884;8.696;2023-05-07T13:01:05;20.30;99.90
22742;DHT22;11538;48.884;8.696;2023-05-07T13:03:35;20.00;99.90
22742;DHT22;11538;48.884;8.696;2023-05-07T13:06:08;19.80;99.90
22742;DHT22;11538;48.884;8.696;2023-05-07T13:08:38;19.50;99.90
22742;DHT22;11538;48.884;8.696;2023-05-07T13:11:10;19.30;99.90
22742;DHT22;11538;48.884;8.696;2023-05-07T13:13:40;19.20;99.90
22742;DHT22;11538;48.884;8.696;2023-05-07T13:16:10;19.10;99.90
22742;DHT22;11538;48.884;8.696;2023-05-07T13:18:39;19.00;99.90
22742;DHT22;11538;48.884;8.696;2023-05-07T13:21:07;18.90;99.90
22742;DHT22;11538;48.884;8.696;2023-05-07T13:23:34;18.80;99.90
22742;DHT22;11538;48.884;8.696;2023-05-07T13:26:00;18.70;99.90
22742;DHT22;11538;48.884;8.696;2023-05-07T13:28:37;18.50;99.90
22742;DHT22;11538;48.884;8.696;2023-05-07T13:31:04;18.40;99.90
22742;DHT22;11538;48.884;8.696;2023-05-07T13:33:30;18.40;99.90
22742;DHT22;11538;48.884;8.696;2023-05-07T13:35:57;18.30;99.90
22742;DHT22;11538;48.884;8.696;2023-05-07T13:38:26;18.30;99.90
22742;DHT22;11538;48.884;8.696;2023-05-07T13:40:54;18.20;99.90
22742;DHT22;11538;48.884;8.696;2023-05-07T13:43:20;18.10;99.90
22742;DHT22;11538;48.884;8.696;2023-05-07T13:45:47;18.10;99.90
22742;DHT22;11538;48.884;8.696;2023-05-07T13:48:15;18.00;99.90
22742;DHT22;11538;48.884;8.696;2023-05-07T13:50:42;18.00;99.90
22742;DHT22;11538;48.884;8.696;2023-05-07T13:53:08;17.90;99.90
22742;DHT22;11538;48.884;8.696;2023-05-07T13:55:35;17.90;99.90
22742;DHT22;11538;48.884;8.696;2023-05-07T13:58:02;17.90;99.90
22742;DHT22;11538;48.884;8.696;2023-05-07T14:00:33;17.90;99.90
22742;DHT22;11538;48.884;8.696;2023-05-07T14:03:00;17.80;99.90
22742;DHT22;11538;48.884;8.696;2023-05-07T14:05:27;17.90;99.90
22742;DHT22;11538;48.884;8.696;2023-05-07T14:07:57;17.90;99.90
22742;DHT22;11538;48.884;8.696;2023-05-07T14:10:24;18.00;99.90
22742;DHT22;11538;48.884;8.696;2023-05-07T14:12:51;18.10;99.90
22742;DHT22;11538;48.884;8.696;2023-05-07T14:15:19;18.10;99.90
22742;DHT22;11538;48.884;8.696;2023-05-07T14:17:46;18.20;99.90
22742;DHT22;11538;48.884;8.696;2023-05-07T14:20:13;18.30;99.90
22742;DHT22;11538;48.884;8.696;2023-05-07T14:22:40;18.40;99.90
22742;DHT22;11538;48.884;8.696;2023-05-07T14:25:08;18.50;99.90
22742;DHT22;11538;48.884;8.696;2023-05-07T14:27:36;18.60;99.90
22742;DHT22;11538;48.884;8.696;2023-05-07T14:30:03;18.70;99.90
22742;DHT22;11538;48.884;8.696;2023-05-07T14:32:30;18.80;99.90
22742;DHT22;11538;48.884;8.696;2023-05-07T14:34:57;18.90;99.90
22742;DHT22;11538;48.884;8.696;2023-05-07T14:37:24;18.90;99.90
22742;DHT22;11538;48.884;8.696;2023-05-07T14:39:51;19.00;99.90
22742;DHT22;11538;48.884;8.696;2023-05-07T14:42:18;19.00;99.90
22742;DHT22;11538;48.884;8.696;2023-05-07T14:44:45;19.00;99.90
22742;DHT22;11538;48.884;8.696;2023-05-07T14:47:14;19.10;99.90
22742;DHT22;11538;48.884;8.696;2023-05-07T14:49:45;19.10;99.90
22742;DHT22;11538;48.884;8.696;2023-05-07T14:52:15;19.10;99.90
22742;DHT22;11538;48.884;8.696;2023-05-07T14:54:42;19.10;99.90
22742;DHT22;11538;48.884;8.696;2023-05-07T14:57:10;19.10;99.90
22742;DHT22;11538;48.884;8.696;2023-05-07T14:59:40;19.10;99.90
22742;DHT22;11538;48.884;8.696;2023-05-07T15:02:09;19.10;99.90
22742;DHT22;11538;48.884;8.696;2023-05-07T15:04:38;19.10;99.90
22742;DHT22;11538;48.884;8.696;2023-05-07T15:07:15;19.10;99.90
22742;DHT22;11538;48.884;8.696;2023-05-07T15:09:43;19.10;99.90
22742;DHT22;11538;48.884;8.696;2023-05-07T15:12:11;19.10;99.90
22742;DHT22;11538;48.884;8.696;2023-05-07T15:14:38;19.10;99.90
22742;DHT22;11538;48.884;8.696;2023-05-07T15:17:06;19.00;99.90
22742;DHT22;11538;48.884;8.696;2023-05-07T15:19:34;19.00;99.90
22742;DHT22;11538;48.884;8.696;2023-05-07T15:22:01;19.00;99.90
22742;DHT22;11538;48.884;8.696;2023-05-07T15:24:31;19.10;99.90
22742;DHT22;11538;48.884;8.696;2023-05-07T15:26:58;19.10;99.90
22742;DHT22;11538;48.884;8.696;2023-05-07T15:29:25;19.00;99.90
22742;DHT22;11538;48.884;8.696;2023-05-07T15:31:53;19.00;99.90
22742;DHT22;11538;48.884;8.696;2023-05-07T15:34:22;19.00;99.90
22742;DHT22;11538;48.884;8.696;2023-05-07T15:36:50;19.00;99.90
22742;DHT22;11538;48.884;8.696;2023-05-07T15:39:17;19.00;99.90
22742;DHT22;11538;48.884;8.696;2023-05-07T15:41:44;19.00;99.90
22742;DHT22;11538;48.884;8.696;2023-05-07T15:44:11;19.00;99.90
22742;DHT22;11538;48.884;8.696;2023-05-07T15:46:39;19.00;99.90
22742;DHT22;11538;48.884;8.696;2023-05-07T15:49:12;19.00;99.90
22742;DHT22;11538;48.884;8.696;2023-05-07T15:51:45;19.00;99.90
22742;DHT22;11538;48.884;8.696;2023-05-07T15:54:13;19.00;99.90
22742;DHT22;11538;48.884;8.696;2023-05-07T15:56:40;19.00;99.90
22742;DHT22;11538;48.884;8.696;2023-05-07T15:59:07;19.00;99.90
22742;DHT22;11538;48.884;8.696;2023-05-07T16:01:45;19.00;99.90